ACT        NSW        VIC        QLD        SA        WA        TAS        NT        INFO        CALC            by VK5ZD

Past Date/Time: (dd/mm/yyyy hh:mm or blank for current data)    

  Atmospheric Gas Attenuation - ITU Rec 676-11   --------------- dB/100km ---------------
WA Stations Date Time Temp RH % AH g/m3 Dew Point Wind Direction Speed kph Gust kph Barometer mB Rainfall Since 9am 24GHz 47GHz 76GHz 122GHz 134GHz 241GHz
Albany 01/09 09:00 12.6 80 8.85 9.2 7 1013.1 2 20.2 26.7 41.4 108.8 103.3 355.5
Albany Airport 01/09 12:50 15.9 53 7.18 6.3 20 26 1022.4 0 16.5 23.4 33.7 88.2 78.6 269.5
Badgingarra 01/09 12:50 16.8 66 9.44 10.4 15 22 1013.1 0 21.2 26.4 41.6 109.3 105.5 363.7
Barimunya 01/09 12:50 30.6 18 5.64 3.6 7 17 1013.1 0 12.7 17.9 23.4 60.9 50.1 170.7
Barrow Island 01/09 12:50 26.4 57 14.19 17.2 20 22 1017.5 0 30.7 31.1 55.1 145.3 152.7 529.9
Beverley 01/09 09:00 12.8 88 9.86 10.9 0 1013.1 1 22.3 28.3 45.5 119.8 116.9 403.2
Bickley 01/09 12:50 14.3 54 6.63 5.1 9 20 1013.1 0 15.4 22.7 32.0 83.6 72.8 249.0
Boolgeeda 01/09 12:50 31.5 19 6.25 5.1 13 22 1015.2 0 14.0 18.5 25.0 65.1 55.4 189.7
Bridgetown 01/09 12:50 14.6 56 7.01 5.9 7 13 1023.8 0 16.2 23.6 33.7 88.0 77.9 266.8
Brookton 01/09 09:00 12 82 8.74 9 0 1013.1 0.8 20.0 26.7 41.3 108.4 102.6 353.0
Broome 01/09 12:50 34 43 16.14 19.6 15 20 1015 0 34.1 31.5 57.3 151.4 162.4 564.5
Bulga Downs 01/09 09:00 16.9 69 9.92 11.3 6 1023.2 0 22.2 27.5 43.9 115.4 112.6 388.4
Bunbury 01/09 12:50 16.4 56 7.82 7.6 9 15 1024.7 0 17.8 24.4 36.0 94.2 86.2 296.0
Busselton Airport 01/09 12:50 15.7 57 7.63 7.2 15 20 1024.3 0 17.4 24.2 35.6 93.1 84.6 290.1
Cape Leeuwin 01/09 12:50 15.8 55 7.4 6.8 33 41 1023.8 0 16.9 23.8 34.7 90.6 81.6 279.6
Cape Naturaliste 01/09 12:50 16.2 55 7.58 7.2 24 32 1024.2 0 17.3 24.0 35.2 92.0 83.4 286.1
Carnarvon 01/09 12:50 22.6 57 11.45 13.7 35 46 1020.6 0 25.1 28.1 46.7 122.9 123.8 428.4
Christmas Creek 01/09 12:50 31.7 18 5.98 4.5 7 17 1016.6 0 13.4 18.2 24.2 62.9 52.8 180.4
Christmas Island 01/09 12:50 25.9 84 20.34 23 22 32 1015.4 0 43.7 42.3 82.8 219.1 243.2 845.0
Collie East 01/09 12:50 15.1 50 6.45 4.8 9 17 1013.1 0 15.0 22.2 31.0 81.0 70.0 239.0
Coondewanna 01/09 12:50 30.6 15 4.7 1 11 15 1013.1 0 10.8 16.8 20.7 53.8 41.3 139.8
Cunderdin Airport 01/09 12:50 16.9 55 7.91 7.8 13 20 1024.2 0.2 18.0 24.3 36.1 94.5 86.7 297.9
Curtin 01/09 12:50 36.2 13 5.47 3.4 19 28 1013.9 0 12.2 16.7 21.5 55.9 45.4 154.9
Cygnet Bay 01/09 09:00 26.8 56 14.25 17.4 1018.2 0 30.7 31.1 55.1 145.3 152.8 530.3
Dalwallinu 01/09 12:50 15.6 67 8.91 9.5 13 20 1023.6 0 20.1 26.3 40.6 106.4 101.0 347.8
Derby 01/09 12:50 37.1 14 6.17 5.2 19 28 1014.4 0 13.6 17.4 23.2 60.3 51.1 175.1
Doongan 01/09 09:00 28.2 47 12.92 15.9 20 1018.4 0 27.9 28.5 48.9 129.0 133.1 461.6
Dwellingup 01/09 12:50 14.8 50 6.33 4.5 11 17 1024.5 0 14.7 22.5 31.1 81.1 69.5 237.1
Eliwana Airport 01/09 12:50 31 21 6.72 6.1 9 19 1013.1 0 14.9 19.1 26.4 69.0 60.2 206.6
Esperance 01/09 12:50 16.7 63 8.95 9.6 17 26 1022.5 0 20.2 26.0 40.1 105.3 100.0 344.5
Esperance Airport 01/09 12:50 14.9 75 9.56 10.5 22 26 1022.7 0 21.6 27.5 43.6 114.4 110.6 381.1
Eucla 01/09 12:50 19 76 12.38 14.7 22 32 1019.1 0 27.3 30.8 52.7 138.9 142.4 492.8
Fitzroy Crossing 01/09 12:50 36.1 15 6.28 5.4 17 30 1014.9 0 13.9 17.7 23.8 61.9 52.8 180.7
Forrest 01/09 12:50 23.7 45 9.62 11.1 1018.6 0 21.2 24.9 39.1 102.6 99.2 342.6
Fortescue Dave Forrest 01/09 12:50 32.2 18 6.14 4.9 6 11 1015.7 0 13.7 18.2 24.5 63.7 53.9 184.5
Garden Island 01/09 12:50 15.8 59 7.94 7.8 22 26 1024.8 0 18.1 24.7 36.8 96.2 88.4 303.5
Geraldton Airport 01/09 12:50 20.3 70 12.31 14.7 17 26 1023.1 0.2 27.1 30.3 51.8 136.3 139.4 482.7
Gerangamete (Cfa) 01/09 14:30 17 61 8.83 9.5 30 35 1013.1 0 19.9 25.3 39.1 102.7 97.4 335.2
Giles* 01/09 14:20 31.5 17 5.59 3.5 24 37 1017.9 0 12.6 17.8 23.2 60.2 49.3 168.0
Gingin Airport 01/09 12:50 18 42 6.45 4.9 19 28 1024.1 0 14.8 21.9 30.3 79.1 68.1 232.8
Golden Grove 01/09 12:50 19.6 58 9.79 11.1 11 17 1013.1 0 21.8 26.1 41.5 109.1 106.2 366.5
Goomalling 01/09 09:00 12.5 82 9.02 9.6 4 1013.1 0.8 20.6 27.0 42.2 110.8 105.7 364.0
Gooseberry Hill 01/09 12:50 16.5 52 7.3 6.6 13 24 1013.1 0 16.7 23.1 33.6 87.8 78.9 270.5
Gudai-Darri Mine 01/09 12:50 32.5 17 5.9 4.3 7 15 1013.1 0 13.2 17.8 23.6 61.5 51.4 175.5
Halls Creek 01/09 14:20 32.3 14 4.8 1.4 17 30 1016.1 0 11.0 16.7 20.7 53.6 41.5 140.7
Hopetoun North 01/09 12:50 16.3 51 7.08 6.2 20 28 1022.4 0 16.2 23.2 33.2 86.7 77.0 263.9
Iron Bridge Mine 01/09 12:50 34.3 16 6.1 4.9 6 13 1013.1 0 13.6 17.7 23.7 61.7 52.1 178.4
Jacup 01/09 12:50 14.7 48 6.04 3.8 15 28 1023 0 14.1 22.1 30.1 78.3 66.0 224.9
Jandakot 01/09 12:50 17.7 47 7.09 6.3 15 20 1024.2 0 16.2 22.9 32.7 85.5 75.9 260.1
Jurien Bay 01/09 09:00 14.8 85 10.77 12.4 9 1024.6 1 24.2 29.7 48.8 128.3 127.7 440.9
Kalbarri 01/09 09:00 19.2 72 11.87 14 4 1023 0 26.2 30.0 50.6 133.2 135.3 468.2
Kalgoorlie-Boulder 01/09 12:50 18.7 56 8.96 9.8 6 13 1021.1 0 20.1 25.4 39.1 102.6 97.5 336.0
Kalumburu 01/09 14:20 33 42 14.96 18.4 19 30 1014.6 0 31.8 30.0 53.4 141.1 149.5 519.6
Karijini North 01/09 12:50 32.3 13 4.46 0.4 11 20 1016.7 0 10.3 16.3 19.8 51.2 38.5 130.0
Karratha 01/09 12:50 33.1 29 10.38 12.7 19 24 1016.4 0 22.3 23.4 37.3 97.9 96.3 333.4
Katanning Rs 01/09 12:50 12.9 56 6.31 4.3 7 15 1023.8 0 14.7 22.9 31.8 82.8 70.9 241.8
Kellerberrin 01/09 09:00 12 88 9.38 10.1 1013.1 0 21.4 27.7 44.0 115.6 111.4 383.8
Koolan Island / Koolan Central 01/09 12:50 27.2 65 16.92 20 13 19 1013.1 0 36.3 35.3 65.7 173.7 187.9 652.8
Kununurra Airport 01/09 14:20 33.6 20 7.35 7.6 17 32 1015.6 0 16.1 19.4 27.6 72.0 64.6 222.2
Lake Grace 01/09 12:50 14.4 45 5.56 2.6 13 22 1023.8 0 13.1 21.5 28.5 74.1 60.6 205.9
Lancelin (Defence) 01/09 12:50 17.8 62 9.41 10.4 13 15 1024 0.2 21.1 26.4 41.5 108.8 104.7 360.9
Laverton 01/09 12:50 22.1 49 9.56 10.9 13 20 1020.7 0 21.2 25.3 39.7 104.3 100.7 347.5
Learmonth 01/09 12:50 27.9 37 10.01 11.9 19 22 1018.8 0 21.8 24.3 38.5 101.1 98.6 341.0
Legendre Island 01/09 12:50 29 53 15.23 18.4 9 15 1017.1 0 32.6 31.9 57.4 151.6 161.2 559.9
Leinster 01/09 12:50 24.1 34 7.44 7.3 13 24 1019.6 0 16.7 21.7 31.3 81.8 73.7 253.2
Leonora Airport 01/09 12:50 22.9 40 8.17 8.6 9 19 1020.3 0 18.3 23.0 34.3 89.8 83.2 286.2
Lombadina 01/09 12:50 30.7 51 16.06 19.4 15 19 1013.1 0 34.2 32.5 59.3 156.7 168.1 584.1
Mandora 01/09 12:50 33.7 34 12.56 15.7 19 24 1015.1 0 26.8 26.2 44.3 116.8 119.7 415.5
Mandurah 01/09 12:40 17.7 45 6.79 5.6 7 13 1024.6 0 15.6 22.5 31.7 82.7 72.4 247.7
Manjimup 01/09 12:50 14.7 58 7.3 6.5 13 24 1023.6 0 16.8 24.0 34.7 90.8 81.4 279.0
Marble Bar 01/09 12:50 36.3 13 5.5 3.5 7 11 1016 0 12.3 16.8 21.6 56.2 45.7 155.9
Mardie 01/09 12:50 32.6 31 10.81 13.3 20 26 1016.8 0 23.2 24.1 38.9 102.4 101.7 352.1
Meekatharra 01/09 12:50 25.7 28 6.7 5.8 17 24 1020 0 15.1 20.4 28.3 73.9 64.4 220.6
Merredin 01/09 09:00 11.5 90 9.3 10 4 1013.1 0.6 21.2 27.8 43.9 115.4 111.0 382.4
Millendon (Swan Valley) 01/09 12:50 19.3 48 7.96 8 7 11 1023.8 0 18.0 23.8 35.2 92.2 84.7 291.2
Morawa Airport 01/09 12:50 19 65 10.59 12.3 11 17 1023.2 0 23.5 27.9 45.5 119.5 118.4 408.9
Mount Keith 01/09 12:50 24.5 33 7.39 7.2 11 19 1013.1 0 16.6 21.3 30.7 80.4 72.4 248.6
Mount Magnet Airport 01/09 12:50 20.7 47 8.46 9 6 15 1021.3 0 19.0 24.1 36.3 95.2 89.0 306.5
Mullewa 01/09 09:00 16.2 82 11.31 13.2 6 1013.1 0 25.3 29.7 49.7 130.8 131.7 455.4
Munglinup West 01/09 12:50 14.8 56 7.09 6.1 9 20 1022.6 0 16.3 23.6 33.9 88.5 78.6 269.3
Murchison 01/09 09:00 18.1 84 12.98 15.4 11 1023.3 0 28.7 32.3 56.2 148.0 153.1 530.2
Narrogin 01/09 09:00 11 82 8.21 8 2 1013.1 2 18.9 26.1 39.6 103.9 96.7 332.2
Newdegate 01/09 12:50 15 47 6.03 3.8 13 20 1023.2 0 14.1 22.0 29.9 77.9 65.6 223.7
Newman Airport 01/09 12:50 30.9 19 6.05 4.6 9 13 1017.5 0 13.6 18.4 24.6 64.1 54.0 184.6
Norseman Airport 01/09 12:50 15.9 64 8.67 9.1 9 13 1022 0 19.6 25.7 39.4 103.3 97.4 335.1
North Island 01/09 12:50 20.2 67 11.71 13.9 30 37 1023.4 0 25.8 29.4 49.3 129.8 131.5 454.8
Ongerup 01/09 09:00 10.5 91 8.83 9.1 2 1024.1 3 20.2 27.7 43.0 112.7 106.8 367.5
Onslow Airport 01/09 12:50 31.2 36 11.65 14.4 19 20 1018.3 0 25.1 25.7 42.6 112.1 113.2 392.2
Paraburdoo 01/09 12:50 31.2 18 5.82 4.1 7 13 1017 0 13.1 18.1 23.9 62.1 51.6 176.1
Pardoo 01/09 09:00 32.9 29 10.27 13 35 1017.9 0 22.1 23.4 37.0 97.3 95.5 330.5
Paynes Find 01/09 09:00 15.1 83 10.71 12.2 4 1023 0 24.0 29.4 48.3 127.0 126.2 435.7
Pearce 01/09 12:50 18.1 42 6.49 5 6 13 1023.8 0 14.9 21.9 30.4 79.3 68.5 234.0
Perth 01/09 12:50 18.7 45 7.2 6.5 7 9 1024.1 0 16.4 22.8 32.7 85.5 76.3 261.5
Perth Airport 01/09 12:50 18.1 42 6.49 5 17 24 1023.7 0 14.9 21.9 30.4 79.3 68.5 234.0
Port Hedland 01/09 12:50 36 25 10.42 12.9 17 22 1015.5 0 22.3 22.7 36.1 94.8 93.3 323.2
Portable Btsa (Dfes) 01/09 12:40 24.9 37 8.47 9.2 11 15 1013.1 0 18.8 22.7 34.2 89.8 84.0 289.5
Portable Btsd (Dfes) 01/09 12:40 17.5 61 9.09 9.9 7 9 1013.1 0 20.5 25.6 39.9 104.7 100.0 344.7
Portable Btse (Dfes) 01/09 06:40 15.9 67 9.07 9.9 2 4 1013.1 0 20.5 26.0 40.6 106.6 101.9 350.9
Portable Btsf (Dfes) 01/09 12:00 25.7 32 7.66 7.9 17 28 1013.1 0 17.1 21.4 31.2 81.6 74.3 255.3
Portable Btsh (Dfes) 01/09 12:40 18.8 57 9.18 10.1 19 20 1013.1 0 20.6 25.4 39.6 103.9 99.5 343.1
Portable Btsj (Dfes) 01/09 12:40 18.6 42 6.68 5.7 7 9 1013.1 0 15.3 21.7 30.5 79.7 69.6 238.2
Portable Btsl (Dfes) 01/09 12:40 18.5 50 7.91 8.1 20 28 1013.1 0 17.9 23.5 35.0 91.6 84.2 289.4
Portable Btsm (Dfes) 01/09 12:40 29.4 23 6.75 6.4 6 9 1013.1 0 15.1 19.5 27.0 70.6 61.7 211.6
Portable Btsn (Dfes) 01/09 12:40 22.4 37 7.35 7.2 9 13 1013.1 0 16.6 21.8 31.4 82.1 73.8 253.5
Portable Btso (Dfes) 01/09 12:40 14.8 48 6.08 3.9 9 15 1013.1 0 14.2 21.8 29.8 77.7 65.8 224.4
Ravensthorpe 01/09 09:00 12 70 7.46 6.8 15 1023.8 1 17.2 25.0 36.6 95.7 86.4 296.0
Red Rocks Point 01/09 12:50 17.8 67 10.17 11.6 28 33 1020.6 0 22.7 27.5 44.3 116.5 114.3 394.7
Rocky Gully South 01/09 12:50 14.4 66 8.16 8.1 17 26 1013.1 0 18.6 25.0 37.8 99.0 91.9 315.9
Roebourne Airport 01/09 12:50 35 26 10.28 12.6 20 28 1016.4 0 22.0 22.8 36.1 94.9 93.1 322.2
Rottnest Island 01/09 12:50 15.8 47 6.33 4.5 13 19 1024.3 0 14.7 22.3 30.7 80.1 68.6 234.2
Salmon Gums Rs 01/09 12:50 15.5 72 9.52 10.5 7 13 1013.1 0 21.5 26.9 42.6 112.0 108.3 373.5
Shannon 01/09 12:50 15.1 61 7.87 7.6 15 24 1013.1 0 18.0 24.4 36.3 95.1 87.4 300.2
Shark Bay Airport 01/09 12:50 23.9 49 10.6 12.5 15 26 1021.2 0 23.3 26.4 42.7 112.3 111.1 384.3
Solomon Airport 01/09 12:50 31.8 16 5.35 2.9 7 17 1015.1 0 12.1 17.4 22.3 58.0 46.7 159.1
Southern Cross Airport 01/09 12:50 15.6 70 9.31 10.2 7 9 1022.7 0 21.0 26.9 42.2 110.6 106.2 366.0
Swanbourne 01/09 12:50 17.5 79 11.78 13.8 13 20 1013.1 0.2 26.2 30.0 50.8 133.9 136.0 470.6
Telfer 01/09 12:50 35.1 15 5.96 4.6 9 17 1016.1 0 13.2 17.5 23.2 60.3 50.5 172.7
Thevenard Island 01/09 12:50 26.5 48 12.02 14.6 19 24 1018.4 0 26.1 27.7 46.5 122.5 124.6 431.8
Troughton Island 01/09 14:20 29.7 48 14.32 17.5 15 20 1015.9 0 30.7 30.1 53.3 140.6 147.9 513.4
Truscott 01/09 14:20 31 51 16.33 19.7 15 24 1014.8 0 34.8 32.8 60.3 159.2 171.2 595.0
Wagin 01/09 09:00 12 67 7.14 6.1 4 1013.1 1 16.6 24.1 34.9 91.3 81.5 279.0
Walpole North 01/09 12:50 14.8 70 8.87 9.4 17 32 1022.4 0.8 20.1 26.4 40.8 107.0 101.4 349.2
Wandering 01/09 12:50 14.4 55 6.8 5.5 9 19 1013.1 0.2 15.7 22.9 32.6 85.2 74.8 256.0
Warburton 01/09 14:20 32.8 15 5.29 2.8 32 43 1016.8 0 12.0 17.2 21.9 57.0 45.7 155.6
West Angelas 01/09 12:50 30.4 18 5.58 3.4 9 20 1015.7 0 12.6 17.9 23.4 60.7 49.7 169.5
West Musgrave Airport 01/09 12:50 32.5 16 5.55 3.5 32 43 1013.1 0 12.5 17.4 22.6 58.9 48.1 164.1
Wiluna Airport 01/09 12:50 26.3 30 7.43 7.4 6 11 1019.4 0 16.6 21.2 30.4 79.6 71.6 246.1
Windy Harbour 01/09 09:00 14.8 69 8.74 9.3 7 1023.4 6 19.8 26.2 40.3 105.7 99.8 343.4
Witchcliffe West 01/09 12:50 15 63 8.08 8 15 19 1024.2 0 18.4 25.1 37.6 98.5 91.0 312.7
Wongan Hills 01/09 09:00 12 88 9.38 10.1 15 1025.1 0.4 21.3 28.2 44.5 116.9 112.5 387.5
Wyndham Airport 01/09 14:20 34.8 18 7.05 7 13 19 1015.1 0 15.5 18.8 26.3 68.7 60.8 208.9
Yampi Sound (Defence) 01/09 12:50 37.5 15 6.75 6.5 15 24 1018 0 14.8 18.0 24.7 64.6 56.3 193.3
York 01/09 09:00 12 94 10.02 11 7 1025.6 1 22.7 29.3 47.3 124.3 121.6 419.4

Last Refresh: 01-Sep-2026 14:36:15

Bureau of Meteorology